Time;durP1;ratioP1;P1;durP2;ratioP2;P2;SDS_P1;SDS_P2;PMS_P1;PMS_P2;Temp;Humidity;BMP_temperature;BMP_pressure;BME280_temperature;BME280_humidity;BME280_pressure;Samples;Min_cycle;Max_cycle;Signal;HPM_P1;HPM_P2
2022/06/08 00:01:29;;;;;;;2.50;1.20;;;;;;;;;;10459458;28;20736;-71
2022/06/08 00:06:30;;;;;;;1.10;1.00;;;;;;;;;;10464437;28;20311;-74
2022/06/08 00:11:31;;;;;;;1.20;1.20;;;;;;;;;;10448792;28;20178;-71
2022/06/08 00:16:32;;;;;;;1.20;1.20;;;;;;;;;;10453590;28;20206;-71
2022/06/08 00:21:35;;;;;;;3.55;0.95;;;;;;;;;;10461245;28;20225;-71
2022/06/08 00:26:36;;;;;;;1.15;1.00;;;;;;;;;;10459850;28;20202;-72
2022/06/08 00:31:37;;;;;;;0.90;0.90;;;;;;;;;;10454232;28;20249;-71
2022/06/08 00:36:39;;;;;;;1.73;1.20;;;;;;;;;;10446240;28;20209;-72
2022/06/08 00:41:42;;;;;;;1.10;1.10;;;;;;;;;;10459977;28;20199;-71
2022/06/08 00:46:45;;;;;;;1.27;1.27;;;;;;;;;;10457633;28;20260;-71
2022/06/08 00:51:47;;;;;;;1.27;1.17;;;;;;;;;;10460730;28;20190;-71
2022/06/08 00:56:50;;;;;;;1.20;1.20;;;;;;;;;;10439034;28;20785;-72
2022/06/08 01:01:52;;;;;;;1.33;1.33;;;;;;;;;;10430468;28;20301;-72
2022/06/08 01:06:55;;;;;;;1.42;1.33;;;;;;;;;;10428310;28;20345;-72
2022/06/08 01:11:59;;;;;;;0.95;0.93;;;;;;;;;;10386079;28;20183;-70
2022/06/08 01:17:06;;;;;;;2.13;1.40;;;;;;;;;;10402520;28;20202;-71
2022/06/08 01:22:11;;;;;;;1.20;1.08;;;;;;;;;;10396915;28;20343;-71
2022/06/08 01:27:20;;;;;;;2.47;1.23;;;;;;;;;;10380902;28;20193;-72
2022/06/08 01:32:26;;;;;;;1.00;1.00;;;;;;;;;;10405923;28;20208;-71
2022/06/08 01:37:30;;;;;;;1.70;1.20;;;;;;;;;;10404664;28;20298;-73
2022/06/08 01:42:35;;;;;;;1.63;1.55;;;;;;;;;;10385069;28;20196;-73
2022/06/08 01:47:50;;;;;;;1.35;1.05;;;;;;;;;;10418218;28;20179;-74
2022/06/08 01:53:00;;;;;;;1.20;1.10;;;;;;;;;;10411214;28;20230;-71
2022/06/08 01:58:06;;;;;;;1.27;1.15;;;;;;;;;;10394138;28;20680;-71
2022/06/08 02:03:07;;;;;;;1.25;1.25;;;;;;;;;;10384024;28;20289;-71
2022/06/08 02:08:15;;;;;;;1.10;1.10;;;;;;;;;;10417639;28;20883;-71
2022/06/08 02:13:22;;;;;;;1.90;1.05;;;;;;;;;;10452456;28;20919;-72
2022/06/08 02:18:28;;;;;;;1.45;1.27;;;;;;;;;;10420003;28;20179;-73
2022/06/08 02:23:35;;;;;;;1.20;1.20;;;;;;;;;;10433221;28;20226;-71
2022/06/08 02:28:41;;;;;;;1.80;1.70;;;;;;;;;;10434959;28;20235;-72
2022/06/08 02:39:10;;;;;;;1.40;1.30;;;;;;;;;;10439303;28;21001;-71
2022/06/08 02:44:14;;;;;;;1.23;1.02;;;;;;;;;;10431511;28;20205;-72
2022/06/08 02:49:15;;;;;;;1.55;1.45;;;;;;;;;;10432570;28;20190;-71
2022/06/08 02:54:27;;;;;;;1.10;1.10;;;;;;;;;;10437351;28;20206;-71
2022/06/08 02:59:36;;;;;;;1.90;1.80;;;;;;;;;;10447967;28;20178;-72
2022/06/08 03:04:42;;;;;;;1.60;1.60;;;;;;;;;;10421363;28;20722;-72
2022/06/08 03:09:44;;;;;;;2.17;2.08;;;;;;;;;;10449644;28;20292;-72
2022/06/08 03:14:47;;;;;;;1.80;1.80;;;;;;;;;;10441332;28;20202;-72
2022/06/08 03:19:49;;;;;;;1.52;1.52;;;;;;;;;;10446247;28;20182;-72
2022/06/08 03:24:52;;;;;;;2.85;1.60;;;;;;;;;;10437603;28;20207;-72
2022/06/08 03:29:54;;;;;;;1.50;1.50;;;;;;;;;;10429517;28;20272;-73
2022/06/08 03:34:56;;;;;;;1.60;1.60;;;;;;;;;;10435198;28;20324;-72
2022/06/08 03:39:57;;;;;;;1.60;1.50;;;;;;;;;;10439700;28;20324;-72
2022/06/08 03:45:00;;;;;;;2.10;1.38;;;;;;;;;;10458485;28;20698;-71
2022/06/08 03:50:02;;;;;;;2.10;2.00;;;;;;;;;;10457987;28;20225;-71
2022/06/08 03:55:05;;;;;;;2.53;1.80;;;;;;;;;;10444125;28;20206;-71
2022/06/08 04:00:06;;;;;;;2.40;2.30;;;;;;;;;;10452704;28;20206;-71
2022/06/08 04:05:18;;;;;;;2.40;2.30;;;;;;;;;;10446370;28;20218;-72
2022/06/08 04:10:20;;;;;;;2.10;1.98;;;;;;;;;;10435094;28;20174;-71
2022/06/08 04:15:42;;;;;;;2.13;2.13;;;;;;;;;;10414667;28;20206;-72
2022/06/08 04:20:46;;;;;;;1.98;1.88;;;;;;;;;;10447474;28;20289;-72
2022/06/08 04:25:48;;;;;;;2.40;2.20;;;;;;;;;;10436690;28;20221;-71
2022/06/08 04:30:50;;;;;;;3.03;1.83;;;;;;;;;;10421229;28;20298;-73
2022/06/08 04:35:52;;;;;;;2.67;2.50;;;;;;;;;;10422200;28;20205;-73
2022/06/08 04:40:53;;;;;;;2.20;2.00;;;;;;;;;;10431046;28;20183;-73
2022/06/08 04:45:55;;;;;;;1.88;1.77;;;;;;;;;;10428934;28;20230;-73
2022/06/08 04:50:56;;;;;;;2.05;1.48;;;;;;;;;;10435108;28;20221;-73
2022/06/08 04:55:58;;;;;;;1.58;1.58;;;;;;;;;;10428185;28;20665;-74
2022/06/08 05:01:00;;;;;;;2.38;1.65;;;;;;;;;;10424979;28;20218;-74
2022/06/08 05:06:02;;;;;;;1.33;1.23;;;;;;;;;;10413706;28;20215;-73
2022/06/08 05:11:07;;;;;;;1.30;1.27;;;;;;;;;;10423649;28;20171;-74
2022/06/08 05:16:09;;;;;;;2.65;1.25;;;;;;;;;;10425379;28;20222;-75
2022/06/08 05:21:15;;;;;;;0.88;0.88;;;;;;;;;;10419750;28;21237;-75
2022/06/08 05:26:17;;;;;;;0.98;0.93;;;;;;;;;;10433702;28;20300;-74
2022/06/08 05:31:19;;;;;;;2.17;1.25;;;;;;;;;;10412630;28;20211;-74
2022/06/08 05:36:24;;;;;;;1.10;0.90;;;;;;;;;;10436004;28;20198;-73
2022/06/08 05:41:28;;;;;;;1.75;1.17;;;;;;;;;;10410821;28;20175;-74
2022/06/08 05:46:29;;;;;;;2.03;1.48;;;;;;;;;;10410963;28;20281;-74
2022/06/08 05:51:36;;;;;;;3.45;1.63;;;;;;;;;;10415089;28;20232;-76
2022/06/08 05:56:40;;;;;;;1.85;1.40;;;;;;;;;;10419978;28;20286;-75
2022/06/08 06:01:41;;;;;;;1.88;1.35;;;;;;;;;;10443257;28;20264;-74
2022/06/08 06:06:46;;;;;;;1.60;1.50;;;;;;;;;;10433096;28;20230;-75
2022/06/08 06:11:50;;;;;;;1.20;1.20;;;;;;;;;;10435448;28;20182;-74
2022/06/08 06:16:52;;;;;;;5.93;1.38;;;;;;;;;;10421929;28;20272;-74
2022/06/08 06:21:54;;;;;;;1.27;1.27;;;;;;;;;;10441268;28;20871;-75
2022/06/08 06:27:04;;;;;;;1.42;1.40;;;;;;;;;;10431239;28;20325;-74
2022/06/08 06:32:32;;;;;;;1.20;1.10;;;;;;;;;;10433537;28;20201;-75
2022/06/08 06:37:33;;;;;;;2.30;2.20;;;;;;;;;;10450522;28;20756;-75
2022/06/08 06:42:38;;;;;;;2.47;2.38;;;;;;;;;;10425636;28;20246;-75
2022/06/08 06:48:08;;;;;;;2.47;2.20;;;;;;;;;;10357858;28;20183;-74
2022/06/08 06:53:13;;;;;;;2.00;1.45;;;;;;;;;;10427578;28;20198;-75
2022/06/08 06:58:19;;;;;;;1.58;1.48;;;;;;;;;;10411219;28;20845;-75
2022/06/08 07:03:21;;;;;;;2.65;1.42;;;;;;;;;;10409815;28;20207;-76
2022/06/08 07:08:24;;;;;;;1.30;1.27;;;;;;;;;;10431124;28;20810;-76
2022/06/08 07:13:29;;;;;;;3.35;1.10;;;;;;;;;;10429645;28;20198;-76
2022/06/08 07:18:30;;;;;;;0.90;0.90;;;;;;;;;;10435175;28;20174;-75
2022/06/08 07:23:32;;;;;;;1.70;1.17;;;;;;;;;;10424515;28;20218;-75
2022/06/08 07:28:33;;;;;;;1.52;1.50;;;;;;;;;;10447207;28;20178;-75
2022/06/08 07:33:35;;;;;;;4.45;1.17;;;;;;;;;;10428247;28;20309;-76
2022/06/08 07:38:36;;;;;;;1.50;1.30;;;;;;;;;;10440838;28;20214;-74
2022/06/08 07:43:37;;;;;;;1.58;1.30;;;;;;;;;;10449308;28;20206;-74
2022/06/08 07:53:58;;;;;;;0.90;0.90;;;;;;;;;;10444728;28;20217;-74
2022/06/08 07:58:59;;;;;;;1.35;1.35;;;;;;;;;;10449309;28;20189;-74
2022/06/08 08:04:01;;;;;;;1.15;1.15;;;;;;;;;;10438453;28;20277;-75
2022/06/08 08:09:03;;;;;;;0.90;0.90;;;;;;;;;;10441781;28;20214;-75
2022/06/08 08:14:04;;;;;;;8.40;2.33;;;;;;;;;;10445271;28;20231;-75
2022/06/08 08:19:05;;;;;;;2.13;0.70;;;;;;;;;;10433515;28;20183;-74
2022/06/08 08:24:07;;;;;;;0.95;0.63;;;;;;;;;;10428571;28;20259;-76
2022/06/08 08:29:08;;;;;;;1.67;0.70;;;;;;;;;;10436397;28;20183;-75
2022/06/08 08:34:09;;;;;;;0.73;0.50;;;;;;;;;;10450589;28;20214;-75
2022/06/08 08:39:10;;;;;;;1.60;0.68;;;;;;;;;;10443418;28;20243;-74
2022/06/08 08:44:32;;;;;;;0.50;0.50;;;;;;;;;;10435255;28;20856;-75
2022/06/08 08:49:34;;;;;;;0.32;0.32;;;;;;;;;;10419149;28;20202;-75
2022/06/08 08:54:38;;;;;;;0.63;0.50;;;;;;;;;;10439226;28;20206;-75
2022/06/08 08:59:43;;;;;;;0.40;0.40;;;;;;;;;;10429320;28;20592;-75
2022/06/08 09:04:47;;;;;;;0.60;0.60;;;;;;;;;;10441376;28;20218;-75
2022/06/08 09:09:48;;;;;;;0.50;0.50;;;;;;;;;;10441919;28;20726;-74
2022/06/08 09:14:59;;;;;;;1.33;0.50;;;;;;;;;;10420179;28;20728;-76
2022/06/08 09:20:01;;;;;;;0.40;0.40;;;;;;;;;;10441684;28;20261;-75
2022/06/08 09:25:22;;;;;;;1.10;0.40;;;;;;;;;;10449315;28;20229;-74
2022/06/08 09:30:29;;;;;;;0.50;0.50;;;;;;;;;;10444868;28;20181;-74
2022/06/08 09:35:31;;;;;;;0.30;0.30;;;;;;;;;;10445157;28;20194;-75
2022/06/08 09:40:45;;;;;;;1.10;0.40;;;;;;;;;;10447650;28;20210;-75
2022/06/08 09:46:04;;;;;;;0.80;0.50;;;;;;;;;;10440082;28;20308;-75
2022/06/08 09:51:27;;;;;;;2.22;0.40;;;;;;;;;;10437954;28;20189;-75
2022/06/08 09:56:50;;;;;;;0.43;0.43;;;;;;;;;;10452098;28;20370;-76
2022/06/08 10:02:09;;;;;;;0.40;0.40;;;;;;;;;;10447222;28;20233;-76
2022/06/08 10:07:15;;;;;;;1.45;0.50;;;;;;;;;;10435537;28;20674;-75
2022/06/08 10:12:24;;;;;;;0.40;0.40;;;;;;;;;;10441563;28;20198;-75
2022/06/08 10:17:29;;;;;;;0.45;0.30;;;;;;;;;;10452476;28;20673;-75
2022/06/08 10:22:35;;;;;;;0.30;0.30;;;;;;;;;;10435532;28;20728;-78
2022/06/08 10:27:43;;;;;;;0.30;0.30;;;;;;;;;;10451718;28;20190;-75
2022/06/08 10:32:46;;;;;;;1.05;0.40;;;;;;;;;;10446423;28;20859;-75
2022/06/08 10:37:49;;;;;;;1.75;0.20;;;;;;;;;;10432273;28;20269;-76
2022/06/08 10:42:51;;;;;;;0.20;0.20;;;;;;;;;;10423907;28;20265;-76
2022/06/08 10:47:57;;;;;;;0.32;0.20;;;;;;;;;;10429083;28;20175;-75
2022/06/08 10:54:53;;;;;;;0.57;0.20;;;;;;;;;;10441045;28;20202;-75
2022/06/08 10:58:19;;;;;;;1.27;0.20;;;;;;;;;;10438982;28;20187;-76
2022/06/08 11:03:23;;;;;;;0.63;0.30;;;;;;;;;;10445225;28;20222;-75
2022/06/08 11:08:24;;;;;;;0.30;0.30;;;;;;;;;;10432063;28;20209;-77
2022/06/08 11:13:30;;;;;;;0.30;0.30;;;;;;;;;;10439042;28;20198;-75
2022/06/08 11:18:34;;;;;;;0.70;0.30;;;;;;;;;;10429478;28;20243;-76
2022/06/08 11:23:42;;;;;;;0.32;0.32;;;;;;;;;;10430229;28;20221;-76
2022/06/08 11:28:50;;;;;;;0.40;0.40;;;;;;;;;;10451404;28;20182;-75
2022/06/08 11:33:59;;;;;;;0.30;0.30;;;;;;;;;;10464474;28;20220;-76
2022/06/08 11:39:05;;;;;;;0.98;0.40;;;;;;;;;;10455602;28;20191;-77
2022/06/08 11:44:11;;;;;;;0.20;0.20;;;;;;;;;;10455035;28;20352;-76
2022/06/08 11:49:29;;;;;;;0.40;0.40;;;;;;;;;;10451306;28;20193;-77
2022/06/08 11:54:32;;;;;;;0.30;0.30;;;;;;;;;;10439491;28;20281;-76
2022/06/08 11:59:36;;;;;;;0.30;0.30;;;;;;;;;;10450726;28;20814;-76
2022/06/08 12:04:42;;;;;;;0.30;0.30;;;;;;;;;;10451332;28;20222;-76
2022/06/08 12:09:43;;;;;;;0.30;0.30;;;;;;;;;;10435202;28;20211;-75
2022/06/08 12:14:45;;;;;;;0.85;0.38;;;;;;;;;;10417229;28;20364;-76
2022/06/08 12:19:55;;;;;;;0.20;0.20;;;;;;;;;;10439245;28;20181;-75
2022/06/08 12:25:15;;;;;;;0.40;0.40;;;;;;;;;;10426060;28;20291;-75
2022/06/08 12:30:20;;;;;;;0.43;0.43;;;;;;;;;;10447265;28;20178;-76
2022/06/08 12:35:26;;;;;;;1.60;0.50;;;;;;;;;;10445597;28;20222;-75
2022/06/08 12:40:29;;;;;;;0.43;0.43;;;;;;;;;;10436922;28;20228;-76
2022/06/08 12:45:34;;;;;;;0.40;0.40;;;;;;;;;;10430359;28;20228;-76
2022/06/08 12:50:35;;;;;;;1.23;0.40;;;;;;;;;;10444472;28;20183;-76
2022/06/08 12:55:39;;;;;;;1.00;0.40;;;;;;;;;;10453567;28;20218;-76
2022/06/08 13:00:47;;;;;;;0.40;0.40;;;;;;;;;;10426352;28;20962;-75
2022/06/08 13:05:48;;;;;;;3.83;0.30;;;;;;;;;;10432756;28;20231;-75
2022/06/08 13:10:50;;;;;;;0.30;0.30;;;;;;;;;;10397342;28;20198;-75
2022/06/08 13:15:53;;;;;;;0.32;0.30;;;;;;;;;;10392676;28;20242;-75
2022/06/08 13:20:55;;;;;;;0.30;0.30;;;;;;;;;;10396613;28;20250;-76
2022/06/08 13:25:57;;;;;;;1.45;0.30;;;;;;;;;;10402263;28;20324;-74
2022/06/08 13:31:00;;;;;;;1.55;0.30;;;;;;;;;;10400587;28;20229;-75
2022/06/08 13:36:02;;;;;;;0.30;0.30;;;;;;;;;;10440958;28;20284;-76
2022/06/08 13:41:03;;;;;;;0.30;0.30;;;;;;;;;;10455959;28;20186;-75
2022/06/08 13:46:07;;;;;;;1.13;0.35;;;;;;;;;;10443817;28;20215;-76
2022/06/08 13:51:09;;;;;;;1.00;0.30;;;;;;;;;;10442298;28;20630;-75
2022/06/08 13:56:12;;;;;;;0.38;0.20;;;;;;;;;;10437143;28;20700;-74
2022/06/08 14:01:22;;;;;;;0.35;0.30;;;;;;;;;;10442119;28;20861;-74
2022/06/08 14:17:05;;;;;;;3.42;0.40;;;;;;;;;;10443499;28;20605;-75
2022/06/08 14:22:08;;;;;;;0.30;0.30;;;;;;;;;;10438572;28;20195;-76
2022/06/08 14:27:11;;;;;;;0.63;0.30;;;;;;;;;;10406342;28;20194;-77
2022/06/08 14:32:17;;;;;;;0.30;0.30;;;;;;;;;;10433414;28;20221;-74
2022/06/08 14:37:19;;;;;;;0.57;0.30;;;;;;;;;;10440292;28;20198;-76
2022/06/08 14:42:20;;;;;;;0.65;0.50;;;;;;;;;;10440766;28;20217;-75
2022/06/08 14:47:24;;;;;;;0.50;0.50;;;;;;;;;;10435221;28;20236;-76
2022/06/08 14:52:26;;;;;;;0.60;0.60;;;;;;;;;;10431686;28;20190;-75
2022/06/08 14:57:34;;;;;;;1.50;0.70;;;;;;;;;;10419592;28;20299;-76
2022/06/08 15:02:37;;;;;;;4.38;2.10;;;;;;;;;;10416503;28;20223;-76
2022/06/08 15:07:38;;;;;;;1.98;1.88;;;;;;;;;;10457181;28;20550;-75
2022/06/08 15:12:40;;;;;;;3.55;1.10;;;;;;;;;;10458682;28;20203;-77
2022/06/08 15:17:42;;;;;;;2.47;1.00;;;;;;;;;;10428547;28;20499;-77
2022/06/08 15:22:44;;;;;;;2.67;1.20;;;;;;;;;;10462360;28;20275;-75
2022/06/08 15:27:50;;;;;;;1.63;1.30;;;;;;;;;;10455710;28;20209;-76
2022/06/08 15:32:51;;;;;;;2.92;1.80;;;;;;;;;;10411851;28;20271;-76
2022/06/08 15:37:54;;;;;;;1.48;1.27;;;;;;;;;;10438710;28;20260;-76
2022/06/08 15:42:55;;;;;;;1.50;1.40;;;;;;;;;;10441734;28;20268;-76
2022/06/08 15:48:06;;;;;;;1.17;1.17;;;;;;;;;;10462231;28;20243;-76
2022/06/08 15:53:10;;;;;;;1.58;1.48;;;;;;;;;;10434098;28;20289;-76
2022/06/08 15:58:17;;;;;;;5.25;1.35;;;;;;;;;;10446991;28;20187;-76
2022/06/08 16:03:19;;;;;;;0.70;0.70;;;;;;;;;;10451918;28;20273;-77
2022/06/08 16:08:20;;;;;;;0.88;0.88;;;;;;;;;;10457758;28;20215;-76
2022/06/08 16:13:21;;;;;;;1.50;1.50;;;;;;;;;;10455571;28;20198;-76
2022/06/08 16:18:22;;;;;;;1.15;1.15;;;;;;;;;;10460801;28;20554;-75
2022/06/08 16:23:24;;;;;;;1.42;1.20;;;;;;;;;;10449328;28;20229;-76
2022/06/08 16:28:25;;;;;;;1.02;1.02;;;;;;;;;;10438558;28;20184;-75
2022/06/08 16:33:27;;;;;;;1.05;0.88;;;;;;;;;;10435825;28;20219;-76
2022/06/08 16:38:28;;;;;;;0.85;0.85;;;;;;;;;;10424952;28;20186;-75
2022/06/08 16:43:29;;;;;;;0.73;0.73;;;;;;;;;;10457978;28;20243;-76
2022/06/08 16:48:33;;;;;;;0.70;0.70;;;;;;;;;;10462159;28;20183;-75
2022/06/08 16:53:38;;;;;;;0.85;0.85;;;;;;;;;;10449305;28;20286;-76
2022/06/08 17:03:59;;;;;;;0.95;0.95;;;;;;;;;;10463469;28;20793;-76
2022/06/08 17:09:01;;;;;;;2.83;1.27;;;;;;;;;;10461277;28;20225;-76
2022/06/08 17:14:02;;;;;;;2.10;1.13;;;;;;;;;;10453339;28;20233;-75
2022/06/08 17:19:03;;;;;;;2.45;0.93;;;;;;;;;;10457784;28;20178;-75
2022/06/08 17:24:04;;;;;;;1.23;1.13;;;;;;;;;;10454893;28;20218;-75
2022/06/08 17:29:08;;;;;;;1.02;1.02;;;;;;;;;;10451815;28;20186;-75
2022/06/08 17:34:10;;;;;;;1.23;1.13;;;;;;;;;;10462573;28;20225;-76
2022/06/08 17:39:12;;;;;;;4.10;2.60;;;;;;;;;;10464478;28;20182;-76
2022/06/08 17:44:13;;;;;;;1.35;1.35;;;;;;;;;;10454436;28;20360;-75
2022/06/08 17:49:21;;;;;;;0.98;0.98;;;;;;;;;;10456362;28;20580;-66
2022/06/08 17:54:22;;;;;;;1.10;1.10;;;;;;;;;;10448006;28;20235;-66
2022/06/08 17:59:24;;;;;;;1.20;1.02;;;;;;;;;;10437358;28;20235;-66
2022/06/08 18:04:25;;;;;;;1.92;0.77;;;;;;;;;;10481498;28;20210;-66
2022/06/08 18:09:26;;;;;;;1.05;0.95;;;;;;;;;;10496556;28;20178;-66
2022/06/08 18:14:32;;;;;;;1.00;1.00;;;;;;;;;;10490571;28;20557;-66
2022/06/08 18:19:34;;;;;;;1.25;1.25;;;;;;;;;;10497512;28;20244;-66
2022/06/08 18:24:36;;;;;;;3.40;1.33;;;;;;;;;;10498635;28;20174;-66
2022/06/08 18:29:39;;;;;;;1.33;1.30;;;;;;;;;;10489077;28;20681;-67
2022/06/08 18:34:40;;;;;;;1.30;1.30;;;;;;;;;;10495372;28;20253;-65
2022/06/08 18:39:41;;;;;;;1.48;1.48;;;;;;;;;;10494612;28;20239;-66
2022/06/08 18:44:43;;;;;;;1.60;1.35;;;;;;;;;;10498219;28;20292;-66
2022/06/08 18:49:44;;;;;;;1.70;1.60;;;;;;;;;;10495711;28;20296;-66
2022/06/08 18:54:46;;;;;;;2.33;2.17;;;;;;;;;;10487697;28;20185;-66
2022/06/08 18:59:47;;;;;;;1.85;1.75;;;;;;;;;;10471259;28;21174;-66
2022/06/08 19:04:49;;;;;;;1.95;1.83;;;;;;;;;;10454586;28;20706;-65
2022/06/08 19:09:50;;;;;;;1.75;1.75;;;;;;;;;;10462174;28;20221;-65
2022/06/08 19:14:51;;;;;;;1.77;1.70;;;;;;;;;;10460421;28;20266;-67
2022/06/08 19:25:12;;;;;;;1.92;1.83;;;;;;;;;;10463506;28;20254;-66
2022/06/08 19:30:13;;;;;;;2.15;2.05;;;;;;;;;;10463613;28;20234;-67
2022/06/08 19:35:14;;;;;;;2.20;2.10;;;;;;;;;;10459622;28;20249;-65
2022/06/08 19:40:16;;;;;;;1.90;1.80;;;;;;;;;;10459378;28;21042;-65
2022/06/08 19:45:17;;;;;;;2.40;2.30;;;;;;;;;;10462143;28;21465;-67
2022/06/08 19:50:19;;;;;;;2.90;2.88;;;;;;;;;;10461087;28;20228;-67
2022/06/08 19:55:20;;;;;;;4.18;2.60;;;;;;;;;;10458405;28;20306;-67
2022/06/08 20:00:21;;;;;;;3.38;2.47;;;;;;;;;;10463348;28;20205;-66
2022/06/08 20:05:24;;;;;;;2.63;1.27;;;;;;;;;;10436379;28;20275;-65
2022/06/08 20:10:25;;;;;;;1.17;0.90;;;;;;;;;;10445398;28;20253;-65
2022/06/08 20:15:28;;;;;;;0.52;0.52;;;;;;;;;;10448042;28;20273;-65
2022/06/08 20:20:29;;;;;;;0.60;0.60;;;;;;;;;;10449876;28;20190;-65
2022/06/08 20:25:35;;;;;;;0.93;0.50;;;;;;;;;;10446805;28;20211;-65
2022/06/08 20:30:36;;;;;;;0.50;0.50;;;;;;;;;;10443847;28;20190;-66
2022/06/08 20:35:38;;;;;;;0.45;0.45;;;;;;;;;;10450241;28;20190;-65
2022/06/08 20:40:40;;;;;;;0.60;0.40;;;;;;;;;;10430064;28;20203;-66
2022/06/08 20:45:42;;;;;;;1.08;0.40;;;;;;;;;;10452244;28;20230;-66
2022/06/08 20:50:44;;;;;;;1.23;0.60;;;;;;;;;;10459750;28;20546;-66
2022/06/08 20:55:45;;;;;;;1.17;0.60;;;;;;;;;;10434103;28;20182;-66
2022/06/08 21:00:49;;;;;;;0.80;0.52;;;;;;;;;;10436481;28;20706;-67
2022/06/08 21:05:50;;;;;;;0.45;0.45;;;;;;;;;;10457741;28;20225;-66
2022/06/08 21:10:55;;;;;;;0.52;0.50;;;;;;;;;;10461015;28;20175;-66
2022/06/08 21:15:57;;;;;;;0.73;0.73;;;;;;;;;;10459715;28;20201;-65
2022/06/08 21:20:58;;;;;;;0.73;0.73;;;;;;;;;;10458281;28;20702;-66
2022/06/08 21:26:02;;;;;;;1.75;0.80;;;;;;;;;;10461292;28;20300;-66
2022/06/08 21:31:03;;;;;;;0.95;0.90;;;;;;;;;;10455567;28;20210;-66
2022/06/08 21:36:05;;;;;;;1.10;0.70;;;;;;;;;;10459790;28;20247;-66
2022/06/08 21:41:06;;;;;;;1.10;1.00;;;;;;;;;;10462127;28;20178;-67
2022/06/08 21:46:07;;;;;;;1.75;1.00;;;;;;;;;;10457522;28;20221;-67
2022/06/08 21:51:10;;;;;;;0.93;0.93;;;;;;;;;;10451263;28;20264;-66
2022/06/08 21:56:11;;;;;;;1.05;0.90;;;;;;;;;;10452993;28;20209;-66
2022/06/08 22:01:17;;;;;;;2.85;0.88;;;;;;;;;;10455136;28;20212;-66
2022/06/08 22:06:18;;;;;;;1.17;1.10;;;;;;;;;;10459147;28;20252;-67
2022/06/08 22:11:21;;;;;;;1.88;0.70;;;;;;;;;;10459299;28;20576;-66
2022/06/08 22:16:24;;;;;;;2.20;0.85;;;;;;;;;;10456329;28;20201;-67
2022/06/08 22:21:26;;;;;;;1.42;1.10;;;;;;;;;;10444031;28;20642;-67
2022/06/08 22:26:28;;;;;;;3.25;0.75;;;;;;;;;;10459624;28;20207;-66
2022/06/08 22:31:29;;;;;;;1.88;0.95;;;;;;;;;;10459717;28;20814;-67
2022/06/08 22:36:30;;;;;;;1.90;1.27;;;;;;;;;;10450674;28;20285;-67
2022/06/08 22:41:32;;;;;;;1.77;0.82;;;;;;;;;;10463004;28;20225;-65
2022/06/08 22:46:33;;;;;;;2.28;1.10;;;;;;;;;;10468874;28;20266;-67
2022/06/08 22:51:34;;;;;;;4.13;1.10;;;;;;;;;;10469566;28;20281;-67
2022/06/08 22:56:35;;;;;;;1.05;1.00;;;;;;;;;;10465557;28;20921;-66
2022/06/08 23:01:36;;;;;;;2.50;1.20;;;;;;;;;;10463224;28;20234;-66
2022/06/08 23:06:37;;;;;;;2.38;0.95;;;;;;;;;;10463834;28;20264;-66
2022/06/08 23:11:41;;;;;;;1.67;0.90;;;;;;;;;;10463537;28;20280;-66
2022/06/08 23:22:02;;;;;;;2.88;1.00;;;;;;;;;;10466929;28;20617;-66
2022/06/08 23:27:04;;;;;;;1.95;0.88;;;;;;;;;;10454927;28;20234;-66
2022/06/08 23:32:06;;;;;;;2.97;1.17;;;;;;;;;;10442098;28;20207;-66
2022/06/08 23:37:07;;;;;;;2.95;1.05;;;;;;;;;;10460177;28;20186;-66
2022/06/08 23:42:08;;;;;;;1.70;1.23;;;;;;;;;;10463978;28;20182;-68
2022/06/08 23:47:09;;;;;;;1.77;1.15;;;;;;;;;;10457769;28;20233;-66
2022/06/08 23:52:10;;;;;;;1.10;1.00;;;;;;;;;;10449847;28;20183;-66
2022/06/08 23:57:11;;;;;;;1.38;1.00;;;;;;;;;;10448969;28;20555;-66
